createdAt,value
2022-12-29T00:00:26.111Z,1.57
2022-12-29T00:02:55.316Z,0.93
2022-12-29T00:05:23.009Z,1.13
2022-12-29T00:07:50.670Z,1.10
2022-12-29T00:10:18.559Z,1.07
2022-12-29T00:13:04.230Z,0.70
2022-12-29T00:15:41.017Z,1.00
2022-12-29T00:18:10.343Z,0.90
2022-12-29T00:20:56.615Z,1.03
2022-12-29T00:23:43.831Z,0.73
2022-12-29T00:26:33.228Z,1.17
2022-12-29T00:29:19.076Z,1.00
2022-12-29T00:32:04.411Z,1.00
2022-12-29T00:34:51.121Z,1.33
2022-12-29T00:37:39.404Z,0.93
2022-12-29T00:40:25.334Z,0.80
2022-12-29T00:43:10.834Z,1.20
2022-12-29T00:45:38.505Z,0.70
2022-12-29T00:48:06.330Z,0.90
2022-12-29T00:50:35.346Z,0.80
2022-12-29T00:53:02.977Z,0.63
2022-12-29T00:55:30.609Z,0.67
2022-12-29T00:57:59.252Z,0.80
2022-12-29T01:00:26.946Z,0.50
2022-12-29T01:02:54.657Z,0.67
2022-12-29T01:05:22.351Z,0.70
2022-12-29T01:07:51.311Z,0.80
2022-12-29T01:10:18.103Z,0.60
2022-12-29T01:12:46.264Z,0.57
2022-12-29T01:15:16.475Z,0.67
2022-12-29T01:17:44.287Z,0.57
2022-12-29T01:20:12.853Z,0.83
2022-12-29T01:22:43.321Z,0.77
2022-12-29T01:25:12.336Z,0.67
2022-12-29T01:27:39.991Z,0.70
2022-12-29T01:30:08.784Z,0.57
2022-12-29T01:32:36.459Z,1.20
2022-12-29T01:35:04.345Z,0.60
2022-12-29T01:37:31.964Z,0.60
2022-12-29T01:39:59.629Z,0.47
2022-12-29T01:42:28.676Z,0.70
2022-12-29T01:44:57.618Z,0.90
2022-12-29T01:47:34.799Z,0.47
2022-12-29T01:50:07.887Z,0.60
2022-12-29T01:52:39.208Z,0.80
2022-12-29T01:55:08.334Z,0.60
2022-12-29T01:57:41.904Z,0.60
2022-12-29T02:00:11.839Z,0.80
2022-12-29T02:02:45.983Z,0.60
2022-12-29T02:05:19.451Z,0.93
2022-12-29T02:07:48.687Z,0.50
2022-12-29T02:10:17.149Z,0.43
2022-12-29T02:12:47.373Z,0.60
2022-12-29T02:15:16.928Z,0.77
2022-12-29T02:18:03.455Z,0.80
2022-12-29T02:21:07.275Z,0.70
2022-12-29T02:23:55.919Z,0.60
2022-12-29T02:26:48.401Z,1.13
2022-12-29T02:32:17.760Z,0.60
2022-12-29T02:34:55.992Z,0.60
2022-12-29T02:37:28.490Z,0.70
2022-12-29T02:40:03.370Z,0.57
2022-12-29T02:42:38.343Z,0.60
2022-12-29T02:45:12.978Z,0.50
2022-12-29T02:47:50.202Z,0.60
2022-12-29T02:50:23.287Z,0.57
2022-12-29T02:52:56.522Z,0.77
2022-12-29T02:55:23.245Z,0.47
2022-12-29T02:58:06.452Z,0.80
2022-12-29T03:00:39.540Z,0.50
2022-12-29T03:03:23.915Z,0.40
2022-12-29T03:06:19.633Z,0.70
2022-12-29T03:08:56.436Z,0.77
2022-12-29T03:11:50.210Z,0.60
2022-12-29T03:14:46.945Z,0.80
2022-12-29T03:17:23.240Z,0.50
2022-12-29T03:19:57.485Z,0.47
2022-12-29T03:22:29.091Z,0.83
2022-12-29T03:25:16.266Z,1.07
2022-12-29T03:27:47.089Z,0.30
2022-12-29T03:30:15.844Z,0.53
2022-12-29T03:32:48.684Z,0.60
2022-12-29T03:35:21.790Z,0.80
2022-12-29T03:37:54.909Z,0.87
2022-12-29T03:40:25.600Z,0.40
2022-12-29T03:42:55.280Z,0.43
2022-12-29T03:45:23.306Z,0.50
2022-12-29T03:47:51.297Z,0.53
2022-12-29T03:50:21.161Z,0.50
2022-12-29T03:52:48.899Z,0.57
2022-12-29T03:55:16.557Z,0.50
2022-12-29T03:57:46.391Z,0.80
2022-12-29T04:00:19.322Z,0.43
2022-12-29T04:02:50.631Z,0.70
2022-12-29T04:05:23.898Z,0.50
2022-12-29T04:07:55.167Z,0.80
2022-12-29T04:10:22.880Z,0.60
2022-12-29T04:12:54.251Z,0.57
2022-12-29T04:15:22.079Z,0.70
2022-12-29T04:17:50.149Z,0.57
2022-12-29T04:20:35.735Z,0.83
2022-12-29T04:23:08.729Z,0.80
2022-12-29T04:25:37.508Z,0.67
2022-12-29T04:28:05.400Z,0.50
2022-12-29T04:30:44.044Z,0.67
2022-12-29T04:33:19.676Z,0.73
2022-12-29T04:35:47.666Z,0.60
2022-12-29T04:38:17.956Z,0.40
2022-12-29T04:40:46.826Z,0.63
2022-12-29T04:43:15.214Z,0.50
2022-12-29T04:46:00.348Z,0.80
2022-12-29T04:48:38.042Z,0.50
2022-12-29T04:51:32.002Z,0.40
2022-12-29T04:54:01.182Z,0.60
2022-12-29T04:56:29.933Z,0.50
2022-12-29T04:58:59.017Z,0.73
2022-12-29T05:01:26.790Z,0.70
2022-12-29T05:03:54.865Z,0.40
2022-12-29T05:06:22.647Z,0.60
2022-12-29T05:08:51.224Z,0.57
2022-12-29T05:11:20.295Z,0.47
2022-12-29T05:13:50.337Z,0.50
2022-12-29T05:16:19.091Z,0.70
2022-12-29T05:18:46.959Z,0.43
2022-12-29T05:21:15.571Z,0.70
2022-12-29T05:23:44.783Z,0.53
2022-12-29T05:26:12.607Z,0.60
2022-12-29T05:28:58.634Z,0.70
2022-12-29T05:31:26.384Z,0.50
2022-12-29T05:33:54.355Z,0.70
2022-12-29T05:36:22.426Z,0.80
2022-12-29T05:38:54.506Z,0.97
2022-12-29T05:41:22.419Z,0.87
2022-12-29T05:44:20.756Z,0.83
2022-12-29T05:47:08.544Z,0.63
2022-12-29T05:49:45.392Z,0.40
2022-12-29T05:52:42.423Z,0.50
2022-12-29T05:55:10.595Z,0.73
2022-12-29T05:57:40.035Z,0.73
2022-12-29T06:00:20.152Z,0.70
2022-12-29T06:02:48.592Z,0.47
2022-12-29T06:05:18.437Z,0.43
2022-12-29T06:07:46.670Z,0.60
2022-12-29T06:10:17.499Z,0.70
2022-12-29T06:12:56.354Z,0.87
2022-12-29T06:15:25.685Z,0.70
2022-12-29T06:17:55.536Z,0.63
2022-12-29T06:20:24.515Z,0.70
2022-12-29T06:22:52.175Z,0.30
2022-12-29T06:25:20.162Z,0.47
2022-12-29T06:27:48.140Z,0.80
2022-12-29T06:30:15.937Z,0.80
2022-12-29T06:32:46.693Z,0.60
2022-12-29T06:35:14.688Z,1.03
2022-12-29T06:37:55.009Z,0.63
2022-12-29T06:40:24.024Z,0.80
2022-12-29T06:43:11.934Z,1.00
2022-12-29T06:46:06.285Z,0.93
2022-12-29T06:48:35.426Z,1.00
2022-12-29T06:51:03.168Z,0.80
2022-12-29T06:53:30.817Z,0.70
2022-12-29T06:55:58.556Z,1.10
2022-12-29T06:58:26.274Z,1.10
2022-12-29T07:00:53.976Z,1.20
2022-12-29T07:03:21.707Z,1.03
2022-12-29T07:05:53.199Z,0.60
2022-12-29T07:08:20.854Z,0.80
2022-12-29T07:10:48.766Z,0.40
2022-12-29T07:13:16.436Z,0.93
2022-12-29T07:15:44.080Z,0.97
2022-12-29T07:18:11.694Z,0.73
2022-12-29T07:20:39.307Z,0.60
2022-12-29T07:23:08.327Z,0.70
2022-12-29T07:25:36.934Z,0.67
2022-12-29T07:28:04.829Z,0.77
2022-12-29T07:30:32.508Z,0.53
2022-12-29T07:33:00.402Z,0.70
2022-12-29T07:35:28.075Z,0.80
2022-12-29T07:37:55.683Z,0.60
2022-12-29T07:40:24.792Z,0.90
2022-12-29T07:42:52.413Z,0.63
2022-12-29T07:45:28.258Z,0.80
2022-12-29T07:48:06.849Z,0.57
2022-12-29T07:50:34.636Z,0.50
2022-12-29T07:53:02.316Z,0.70
2022-12-29T07:55:31.554Z,0.67
2022-12-29T07:57:59.195Z,0.53
2022-12-29T08:00:27.086Z,0.73
2022-12-29T08:02:54.684Z,0.63
2022-12-29T08:05:22.572Z,1.13
2022-12-29T08:07:50.464Z,1.03
2022-12-29T08:10:18.698Z,0.60
2022-12-29T08:12:47.740Z,0.73
2022-12-29T08:15:15.654Z,0.50
2022-12-29T08:17:43.469Z,0.70
2022-12-29T08:20:11.674Z,1.30
2022-12-29T08:22:39.411Z,1.00
2022-12-29T08:25:07.547Z,0.60
2022-12-29T08:27:35.147Z,0.57
2022-12-29T08:30:04.769Z,1.10
2022-12-29T08:32:32.619Z,0.97
2022-12-29T08:35:00.250Z,0.80
2022-12-29T08:37:31.249Z,1.60
2022-12-29T08:39:59.759Z,0.70
2022-12-29T08:42:31.781Z,0.60
2022-12-29T08:44:59.948Z,0.90
2022-12-29T08:47:29.061Z,0.80
2022-12-29T08:49:57.691Z,0.70
2022-12-29T08:52:25.357Z,0.90
2022-12-29T08:54:53.053Z,0.67
2022-12-29T08:57:21.765Z,0.90
2022-12-29T09:00:06.560Z,0.97
2022-12-29T09:02:35.869Z,0.80
2022-12-29T09:05:03.658Z,0.80
2022-12-29T09:07:31.299Z,0.97
2022-12-29T09:09:58.927Z,0.70
2022-12-29T09:12:30.175Z,0.93
2022-12-29T09:15:00.910Z,0.70
2022-12-29T09:17:44.329Z,0.90
2022-12-29T09:20:14.593Z,0.90
2022-12-29T09:22:42.612Z,0.80
2022-12-29T09:25:11.671Z,1.00
2022-12-29T09:27:39.420Z,0.50
2022-12-29T09:30:10.265Z,1.10
2022-12-29T09:32:44.551Z,0.87
2022-12-29T09:35:14.311Z,0.73
2022-12-29T09:37:43.506Z,1.20
2022-12-29T09:40:27.913Z,1.00
2022-12-29T09:43:07.177Z,0.77
2022-12-29T09:45:42.406Z,0.73
2022-12-29T09:48:19.775Z,0.50
2022-12-29T09:50:54.859Z,1.00
2022-12-29T09:53:27.505Z,0.80
2022-12-29T09:55:59.400Z,0.60
2022-12-29T09:58:32.428Z,0.80
2022-12-29T10:01:05.658Z,0.70
2022-12-29T10:03:46.021Z,0.90
2022-12-29T10:06:20.591Z,0.60
2022-12-29T10:08:59.437Z,0.60
2022-12-29T10:11:40.742Z,0.50
2022-12-29T10:14:23.429Z,1.00
2022-12-29T10:16:56.606Z,0.70
2022-12-29T10:19:45.357Z,0.50
2022-12-29T10:22:30.853Z,0.83
2022-12-29T10:24:58.711Z,0.90
2022-12-29T10:27:26.518Z,0.60
2022-12-29T10:29:57.782Z,0.70
2022-12-29T10:32:36.667Z,0.60
2022-12-29T10:35:11.753Z,0.83
2022-12-29T10:37:45.106Z,1.00
2022-12-29T10:40:21.046Z,0.80
2022-12-29T10:42:54.124Z,0.70
2022-12-29T10:45:25.019Z,0.70
2022-12-29T10:47:59.512Z,1.30
2022-12-29T10:50:30.386Z,0.97
2022-12-29T10:53:02.834Z,0.70
2022-12-29T10:55:34.843Z,0.70
2022-12-29T10:58:27.740Z,0.60
2022-12-29T11:00:56.676Z,0.87
2022-12-29T11:03:48.202Z,0.70
2022-12-29T11:06:24.113Z,1.07
2022-12-29T11:08:57.625Z,0.60
2022-12-29T11:11:28.062Z,0.80
2022-12-29T11:14:00.416Z,0.90
2022-12-29T11:16:32.898Z,0.83
2022-12-29T11:19:01.088Z,0.63
2022-12-29T11:21:34.745Z,0.60
2022-12-29T11:24:21.620Z,0.73
2022-12-29T11:26:51.673Z,0.90
2022-12-29T11:29:23.868Z,0.80
2022-12-29T11:31:53.495Z,1.07
2022-12-29T11:34:24.489Z,0.90
2022-12-29T11:36:54.126Z,0.73
2022-12-29T11:39:36.328Z,0.70
2022-12-29T11:42:05.163Z,0.87
2022-12-29T11:44:39.309Z,0.80
2022-12-29T11:47:10.819Z,0.90
2022-12-29T11:49:38.515Z,0.80
2022-12-29T11:52:06.631Z,0.50
2022-12-29T11:54:38.915Z,1.00
2022-12-29T11:57:14.750Z,0.70
2022-12-29T11:59:50.227Z,0.60
2022-12-29T12:02:42.133Z,0.63
2022-12-29T12:05:24.064Z,0.40
2022-12-29T12:07:57.497Z,0.97
2022-12-29T12:10:31.923Z,1.03
2022-12-29T12:13:08.000Z,0.97
2022-12-29T12:15:45.976Z,1.10
2022-12-29T12:18:20.880Z,0.70
2022-12-29T12:20:52.628Z,0.60
2022-12-29T12:23:38.379Z,0.77
2022-12-29T12:26:14.230Z,0.70
2022-12-29T12:28:50.397Z,0.40
2022-12-29T12:31:27.365Z,0.50
2022-12-29T12:34:02.018Z,0.70
2022-12-29T12:36:53.484Z,0.60
2022-12-29T12:39:28.832Z,0.63
2022-12-29T12:42:13.336Z,0.70
2022-12-29T12:44:55.233Z,0.53
2022-12-29T12:47:52.941Z,0.60
2022-12-29T12:50:34.004Z,0.53
2022-12-29T12:53:26.111Z,0.70
2022-12-29T12:56:05.678Z,0.70
2022-12-29T12:58:43.556Z,1.00
2022-12-29T13:01:25.036Z,0.80
2022-12-29T13:04:09.308Z,0.87
2022-12-29T13:06:50.277Z,0.70
2022-12-29T13:09:34.420Z,0.73
2022-12-29T13:12:18.236Z,1.03
2022-12-29T13:15:05.464Z,0.67
2022-12-29T13:17:42.168Z,1.10
2022-12-29T13:20:21.694Z,1.03
2022-12-29T13:22:56.875Z,1.20
2022-12-29T13:25:32.875Z,1.43
2022-12-29T13:28:10.070Z,1.33
2022-12-29T13:30:46.406Z,0.70
2022-12-29T13:33:23.866Z,0.80
2022-12-29T13:35:58.694Z,1.20
2022-12-29T13:38:31.735Z,1.03
2022-12-29T13:41:06.233Z,0.77
2022-12-29T13:43:37.721Z,0.80
2022-12-29T13:46:11.103Z,0.63
2022-12-29T13:48:44.465Z,0.57
2022-12-29T13:51:13.951Z,0.60
2022-12-29T13:53:59.137Z,0.90
2022-12-29T13:56:33.481Z,0.97
2022-12-29T13:59:08.953Z,0.83
2022-12-29T14:01:42.575Z,1.00
2022-12-29T14:04:15.894Z,0.90
2022-12-29T14:06:43.689Z,0.80
2022-12-29T14:09:40.142Z,1.17
2022-12-29T14:12:22.529Z,1.00
2022-12-29T14:14:50.575Z,0.67
2022-12-29T14:17:22.619Z,0.60
2022-12-29T14:19:55.318Z,0.50
2022-12-29T14:22:32.622Z,0.50
2022-12-29T14:25:01.698Z,0.60
2022-12-29T14:27:55.530Z,0.50
2022-12-29T14:30:59.989Z,1.50
2022-12-29T14:33:31.657Z,0.70
2022-12-29T14:36:23.543Z,0.70
2022-12-29T14:38:51.266Z,0.77
2022-12-29T14:41:33.924Z,0.83
2022-12-29T14:44:20.364Z,0.70
2022-12-29T14:46:57.308Z,1.07
2022-12-29T14:49:29.377Z,0.70
2022-12-29T14:52:07.205Z,0.97
2022-12-29T14:54:50.250Z,0.70
2022-12-29T14:57:26.686Z,0.90
2022-12-29T14:59:56.883Z,1.00
2022-12-29T15:02:28.080Z,1.67
2022-12-29T15:05:02.887Z,1.10
2022-12-29T15:07:31.985Z,0.77
2022-12-29T15:10:07.228Z,1.27
2022-12-29T15:12:40.360Z,0.93
2022-12-29T15:15:24.104Z,0.80
2022-12-29T15:17:51.775Z,1.37
2022-12-29T15:20:27.075Z,1.07
2022-12-29T15:22:58.047Z,0.73
2022-12-29T15:25:28.932Z,1.07
2022-12-29T15:28:03.349Z,0.80
2022-12-29T15:30:30.991Z,1.43
2022-12-29T15:32:58.930Z,1.10
2022-12-29T15:35:32.743Z,1.20
2022-12-29T15:38:02.010Z,1.00
2022-12-29T15:40:31.711Z,1.50
2022-12-29T15:43:29.445Z,1.40
2022-12-29T15:45:57.457Z,1.73
2022-12-29T15:48:26.408Z,1.67
2022-12-29T15:50:55.876Z,1.70
2022-12-29T15:53:29.155Z,1.63
2022-12-29T15:56:03.204Z,1.33
2022-12-29T15:58:40.802Z,1.10
2022-12-29T16:01:19.701Z,1.20
2022-12-29T16:03:48.204Z,1.00
2022-12-29T16:06:33.309Z,1.67
2022-12-29T16:09:03.466Z,1.73
2022-12-29T16:11:36.834Z,1.27
2022-12-29T16:14:09.937Z,1.10
2022-12-29T16:16:40.492Z,1.33
2022-12-29T16:19:15.142Z,1.10
2022-12-29T16:21:44.953Z,1.20
2022-12-29T16:24:16.880Z,2.00
2022-12-29T16:26:50.251Z,2.47
2022-12-29T16:29:18.710Z,2.13
2022-12-29T16:32:01.501Z,3.27
2022-12-29T16:34:32.094Z,2.23
2022-12-29T16:37:02.635Z,1.10
2022-12-29T16:39:36.644Z,1.30
2022-12-29T16:42:38.655Z,1.50
2022-12-29T16:45:51.265Z,2.40
2022-12-29T16:48:21.860Z,1.63
2022-12-29T16:50:50.847Z,1.80
2022-12-29T16:53:23.793Z,1.90
2022-12-29T16:55:52.543Z,2.33
2022-12-29T16:58:23.558Z,2.70
2022-12-29T17:00:51.597Z,2.43
2022-12-29T17:03:19.440Z,2.47
2022-12-29T17:05:49.308Z,2.77
2022-12-29T17:08:23.877Z,2.60
2022-12-29T17:11:11.734Z,2.53
2022-12-29T17:13:40.047Z,2.20
2022-12-29T17:16:10.002Z,2.30
2022-12-29T17:18:38.185Z,2.53
2022-12-29T17:21:05.954Z,2.57
2022-12-29T17:23:35.119Z,3.07
2022-12-29T17:26:03.679Z,2.53
2022-12-29T17:28:33.235Z,3.57
2022-12-29T17:31:04.524Z,3.27
2022-12-29T17:33:36.641Z,3.90
2022-12-29T17:36:04.359Z,3.43
2022-12-29T17:38:35.770Z,3.90
2022-12-29T17:41:04.899Z,4.07
2022-12-29T17:43:36.677Z,3.40
2022-12-29T17:46:07.382Z,3.27
2022-12-29T17:48:35.293Z,3.73
2022-12-29T17:51:03.074Z,4.80
2022-12-29T17:53:31.797Z,3.57
2022-12-29T17:55:59.509Z,3.83
2022-12-29T17:58:31.482Z,3.67
2022-12-29T18:01:01.311Z,3.20
2022-12-29T18:03:31.596Z,3.77
2022-12-29T18:05:59.541Z,3.17
2022-12-29T18:08:28.545Z,4.53
2022-12-29T18:10:56.516Z,3.67
2022-12-29T18:13:30.714Z,3.87
2022-12-29T18:16:05.571Z,3.20
2022-12-29T18:18:33.236Z,3.33
2022-12-29T18:21:01.516Z,3.67
2022-12-29T18:23:32.161Z,2.83
2022-12-29T18:26:02.188Z,3.00
2022-12-29T18:28:30.152Z,3.10
2022-12-29T18:31:00.257Z,5.10
2022-12-29T18:33:30.353Z,3.30
2022-12-29T18:35:59.960Z,2.90
2022-12-29T18:38:28.410Z,2.60
2022-12-29T18:40:56.906Z,2.60
2022-12-29T18:43:24.874Z,2.70
2022-12-29T18:45:52.588Z,2.53
2022-12-29T18:48:21.650Z,1.80
2022-12-29T18:50:51.748Z,2.00
2022-12-29T18:53:21.501Z,2.17
2022-12-29T18:55:49.201Z,1.70
2022-12-29T18:58:16.878Z,1.90
2022-12-29T19:00:45.297Z,1.93
2022-12-29T19:03:14.579Z,2.00
2022-12-29T19:05:44.093Z,1.87
2022-12-29T19:08:13.407Z,1.87
2022-12-29T19:10:42.303Z,2.00
2022-12-29T19:13:17.247Z,2.20
2022-12-29T19:15:46.411Z,1.67
2022-12-29T19:21:07.126Z,2.90
2022-12-29T19:23:36.120Z,1.73
2022-12-29T19:26:03.758Z,2.23
2022-12-29T19:28:31.346Z,2.77
2022-12-29T19:31:00.858Z,2.33
2022-12-29T19:33:29.341Z,2.23
2022-12-29T19:36:00.985Z,2.37
2022-12-29T19:38:28.783Z,1.90
2022-12-29T19:40:58.107Z,1.80
2022-12-29T19:43:25.977Z,1.70
2022-12-29T19:45:53.842Z,1.70
2022-12-29T19:48:21.818Z,2.20
2022-12-29T19:50:49.446Z,1.70
2022-12-29T19:53:17.107Z,1.90
2022-12-29T19:55:44.741Z,2.00
2022-12-29T19:58:14.467Z,1.80
2022-12-29T20:00:43.140Z,1.50
2022-12-29T20:03:11.207Z,1.80
2022-12-29T20:05:40.087Z,1.43
2022-12-29T20:08:07.878Z,1.63
2022-12-29T20:10:35.523Z,1.50
2022-12-29T20:13:04.406Z,1.47
2022-12-29T20:15:33.446Z,1.60
2022-12-29T20:18:16.501Z,1.70
2022-12-29T20:20:44.183Z,1.80
2022-12-29T20:23:11.809Z,1.20
2022-12-29T20:25:47.660Z,1.37
2022-12-29T20:28:16.659Z,1.40
2022-12-29T20:30:45.654Z,1.33
2022-12-29T20:33:13.272Z,1.13
2022-12-29T20:35:40.887Z,5.50
2022-12-29T20:38:08.545Z,2.30
2022-12-29T20:40:42.308Z,1.00
2022-12-29T20:43:11.958Z,1.17
2022-12-29T20:45:40.131Z,1.20
2022-12-29T20:48:09.116Z,1.03
2022-12-29T20:50:36.747Z,1.27
2022-12-29T20:53:04.521Z,1.20
2022-12-29T20:55:32.468Z,1.10
2022-12-29T21:00:48.168Z,0.90
2022-12-29T21:03:17.221Z,1.50
2022-12-29T21:05:44.918Z,1.90
2022-12-29T21:08:12.605Z,1.87
2022-12-29T21:10:40.377Z,2.03
2022-12-29T21:13:08.008Z,2.03
2022-12-29T21:15:35.626Z,1.87
2022-12-29T21:18:03.185Z,1.60
2022-12-29T21:20:32.502Z,2.03
2022-12-29T21:23:01.041Z,1.93
2022-12-29T21:25:36.969Z,1.97
2022-12-29T21:28:05.279Z,1.53
2022-12-29T21:30:33.116Z,0.93
2022-12-29T21:33:01.478Z,1.33
2022-12-29T21:35:29.298Z,1.40
2022-12-29T21:37:58.276Z,1.40
2022-12-29T21:40:25.896Z,1.30
2022-12-29T21:42:53.681Z,1.57
2022-12-29T21:45:26.316Z,1.20
2022-12-29T21:48:11.456Z,1.20
2022-12-29T21:51:01.130Z,1.07
2022-12-29T21:53:43.802Z,1.30
2022-12-29T21:56:14.194Z,1.03
2022-12-29T21:59:01.849Z,0.80
2022-12-29T22:01:49.639Z,1.47
2022-12-29T22:04:37.561Z,1.33
2022-12-29T22:07:24.816Z,2.30
2022-12-29T22:10:11.615Z,1.50
2022-12-29T22:12:57.488Z,1.50
2022-12-29T22:15:25.911Z,1.60
2022-12-29T22:17:55.324Z,1.83
2022-12-29T22:20:25.289Z,1.10
2022-12-29T22:22:52.993Z,1.50
2022-12-29T22:25:22.173Z,1.50
2022-12-29T22:27:54.265Z,1.77
2022-12-29T22:30:26.690Z,1.00
2022-12-29T22:32:54.379Z,1.83
2022-12-29T22:35:22.072Z,1.67
2022-12-29T22:37:49.809Z,1.90
2022-12-29T22:40:17.549Z,2.37
2022-12-29T22:42:47.078Z,1.73
2022-12-29T22:45:14.813Z,1.73
2022-12-29T22:47:42.507Z,1.40
2022-12-29T22:50:11.201Z,2.27
2022-12-29T22:52:38.913Z,1.30
2022-12-29T22:55:08.492Z,1.23
2022-12-29T22:57:36.390Z,1.77
2022-12-29T23:00:08.073Z,1.07
2022-12-29T23:02:36.336Z,1.07
2022-12-29T23:05:05.515Z,1.00
2022-12-29T23:07:34.440Z,1.10
2022-12-29T23:10:02.606Z,1.07
2022-12-29T23:12:31.361Z,0.87
2022-12-29T23:14:59.216Z,0.70
2022-12-29T23:17:28.738Z,1.10
2022-12-29T23:19:56.558Z,0.77
2022-12-29T23:22:25.060Z,0.90
2022-12-29T23:24:53.002Z,0.80
2022-12-29T23:27:20.734Z,0.80
2022-12-29T23:29:48.561Z,0.80
2022-12-29T23:32:16.323Z,0.93
2022-12-29T23:34:45.436Z,1.13
2022-12-29T23:37:13.185Z,0.90
2022-12-29T23:39:40.917Z,1.23
2022-12-29T23:42:08.711Z,0.90
2022-12-29T23:44:36.510Z,1.40
2022-12-29T23:47:04.294Z,1.17
2022-12-29T23:49:32.257Z,1.67
2022-12-29T23:52:01.289Z,1.40
2022-12-29T23:54:29.056Z,1.13
2022-12-29T23:56:56.819Z,0.90
2022-12-29T23:59:25.349Z,0.90
